x

Central Dixon Entrance Buoy (46145) Wave Buoy

3:00am - Sun 24th May 2015 All times are PDT. -7 hours from GMT.

  • Sig Wave height 4.9ft
  • Peak Period 12s
  • Wind
    22mph, 25mph gusts
  • Sea Temp 50°f
  • Air Temp 48°f
  • Sea Pressure 1023.9mb
  • Central Dixon Entrance Buoy
  • Central Dixon Entrance Buoy

More Historic Weather Station data

Upgrade to MSW Pro to gain access to the past 30 days of data for over 8000 Wavebouys and Weather Stations around the globe.

Join Pro

Comparision Forecast

View Surf forecast
   
Sun 05/24 3:00am 5ft 12s 22 25 mph 1023.9mb 50f 48f
2:00am 5ft 11s 20 25 mph 1024mb 50f 48f
1:00am 4.5ft 11s 20 22 mph 1024.2mb 50f 49f
12:00am 4.5ft 5s 20 25 mph 1024.3mb 50f 49f
Sat 05/23 11:00pm 4.5ft 5s 20 25 mph 1023.9mb 50f 49f
10:00pm 5ft 5s 20 27 mph 1023.7mb 50f 49f
9:00pm 4.5ft 12s 22 27 mph 1023.3mb 50f 49f
8:00pm 4.5ft 11s 20 22 mph 1023.1mb 50f 49f
7:00pm 4.5ft 11s 20 25 mph 1023mb 50f 49f
6:00pm 4.5ft 11s 22 25 mph 1023.3mb 50f 49f
5:00pm 5ft 10s 22 27 mph 1023.5mb 50f 49f
4:00pm 5ft 12s 22 27 mph 1023.7mb 51f 49f
3:00pm 4.5ft 10s 20 25 mph 1023.5mb 51f 50f
2:00pm 5ft 10s 16 18 mph 1023.5mb 51f 50f
1:00pm 5ft 11s 16 18 mph 1023mb 51f 50f
12:00pm 5ft 10s 18 22 mph 1022.7mb 50f 49f
11:00am 5ft 12s 18 25 mph 1022.2mb 50f 49f
10:00am 5ft 12s 18 22 mph 1021.7mb 50f 49f
9:00am 5ft 12s 18 22 mph 1021.3mb 49f 49f
8:00am 5ft 12s 18 22 mph 1021mb 49f 49f
7:00am 5ft 12s 18 22 mph 1020.6mb 49f 49f
6:00am 5.5ft 12s 20 25 mph 1019.9mb 49f 49f
5:00am 5.5ft 12s 18 22 mph 1020mb 49f 49f
4:00am 6ft 12s 22 25 mph 1019.5mb 49f 49f
3:00am 6ft 12s 22 27 mph 1019.4mb 49f 49f
2:00am 6ft 12s 22 25 mph 1019.7mb 49f 48f
1:00am 6.5ft 12s 22 27 mph 1019mb 50f 49f
12:00am 6ft 12s 22 29 mph 1018.6mb 50f 49f
Fri 05/22 11:00pm 6ft 12s 22 27 mph 1018.5mb 50f 49f
10:00pm 6ft 12s 22 27 mph 1018.2mb 49f 49f
9:00pm 6ft 10s 22 27 mph 1017.8mb 49f 49f
8:00pm 5.5ft 10s 25 31 mph 1017.5mb 49f 49f
7:00pm 5ft 13s 25 29 mph 1017.4mb 49f 49f
6:00pm 5ft 10s 25 31 mph 1017.7mb 49f 50f
5:00pm 5ft 10s 22 27 mph 1017.9mb 50f 50f
4:00pm 6ft 10s 22 27 mph 1018.2mb 49f 50f
3:00pm 6.5ft 9s 22 27 mph 1018.1mb 49f 50f
2:00pm 6ft 10s 20 25 mph 1018.1mb 50f 49f
1:00pm 7ft 8s 20 25 mph 1017.8mb 50f 49f
12:00pm 7ft 8s 22 27 mph 1017.9mb 50f 49f
11:00am 6ft 14s 20 25 mph 1017.8mb 50f 49f
10:00am 5.5ft 8s 22 27 mph 1017.6mb 50f 49f
9:00am 5ft 8s 22 27 mph 1017.6mb 49f 49f
8:00am 5ft 8s 22 27 mph 1017.6mb 49f 49f
7:00am 5.5ft 8s 20 27 mph 1016.9mb 49f 48f
6:00am 5.5ft 8s 22 29 mph 1016.9mb 49f 48f
5:00am 5.5ft 7s 25 29 mph 1016.8mb 49f 48f
4:00am 6ft 8s 25 29 mph 1016.7mb 49f 49f
3:00am 6ft 8s 25 29 mph 1016.6mb 49f 49f
2:00am 6.5ft 8s 25 29 mph 1016.8mb 49f 49f
1:00am 7ft 7s 27 31 mph 1016.9mb 49f 49f
12:00am 7.5ft 6s 25 31 mph 1016.8mb 49f 49f
Thu 05/21 11:00pm 7ft 8s 25 31 mph 1016.7mb 50f 49f
10:00pm 7ft 7s 25 31 mph 1016.4mb 50f 49f
9:00pm 6ft 8s 25 29 mph 1016.1mb 50f 49f
8:00pm 5ft 8s 25 29 mph 1015.9mb 49f 49f
7:00pm 5ft 8s 22 27 mph 1016.2mb 49f 49f
6:00pm 4.5ft 8s 22 29 mph 1016.2mb 50f 49f
5:00pm 4.5ft 8s 22 27 mph 1016.4mb 50f 49f
4:00pm 4.5ft 7s 22 25 mph 1016.9mb 50f 49f
3:00pm 4.5ft 7s 20 25 mph 1017.2mb 50f 49f
2:00pm 5ft 7s 18 22 mph 1017.4mb 50f 49f
1:00pm 5.5ft 8s 18 20 mph 1017.6mb 49f 49f
12:00pm 5ft 7s 18 22 mph 1017.7mb 49f 49f
11:00am 5ft 11s 18 22 mph 1017.9mb 49f 49f
10:00am 4.5ft 11s 18 20 mph 1017.9mb 49f 49f
9:00am 4.5ft 11s 16 20 mph 1018mb 49f 49f
8:00am 4.5ft 7s 18 22 mph 1018mb 49f 49f
7:00am 4ft 12s 18 20 mph 1017.5mb 49f 49f
6:00am 4.5ft 10s 20 22 mph 1017.2mb 49f 49f
5:00am 4.5ft 11s 18 22 mph 1017.8mb 49f 49f
4:00am 5ft 11s 20 25 mph 1017.9mb 49f 49f
3:00am 5ft 11s 20 25 mph 1018mb 49f 48f
2:00am 5ft 11s 22 27 mph 1017.7mb 49f 49f
1:00am 5.5ft 4s 25 27 mph 1017.8mb 49f 49f
12:00am 5.5ft 6s 25 31 mph 1018.1mb 49f 49f
Wed 05/20 11:00pm 6ft 5s 25 29 mph 1018.3mb 50f 49f
10:00pm 5ft 5s 25 29 mph 1018.4mb 50f 49f
9:00pm 5ft 5s 20 27 mph 1018.4mb 50f 49f
8:00pm 5ft 12s 22 27 mph 1018.2mb 50f 49f
7:00pm 4.5ft 12s 22 27 mph 1018.2mb 50f 49f
6:00pm 4.5ft 11s 22 27 mph 1018.2mb 50f 49f
5:00pm 4.5ft 10s 22 27 mph 1018.8mb 50f 49f
4:00pm 4ft 11s 22 25 mph 1019.4mb 50f 49f
3:00pm 4.5ft 12s 20 22 mph 1019.8mb 50f 50f
2:00pm 4.5ft 11s 20 22 mph 1020mb 50f 49f
1:00pm 4.5ft 11s 20 22 mph 1020.3mb 50f 49f
12:00pm 5ft 12s 18 22 mph 1020.6mb 50f 49f